createdAt,value
2023-09-13T00:02:13.450Z,19.15
2023-09-13T00:06:16.241Z,19.15
2023-09-13T00:10:19.976Z,19.10
2023-09-13T00:14:24.262Z,19.05
2023-09-13T00:18:26.942Z,18.95
2023-09-13T00:22:29.564Z,18.88
2023-09-13T00:26:32.216Z,18.83
2023-09-13T00:30:36.210Z,18.65
2023-09-13T00:34:38.911Z,18.47
2023-09-13T00:38:41.529Z,18.38
2023-09-13T00:42:44.233Z,18.42
2023-09-13T00:46:48.389Z,18.46
2023-09-13T00:50:54.532Z,18.49
2023-09-13T00:54:57.489Z,18.45
2023-09-13T00:59:00.792Z,18.42
2023-09-13T01:03:07.633Z,18.41
2023-09-13T01:07:11.153Z,18.42
2023-09-13T01:11:14.050Z,18.47
2023-09-13T01:15:16.996Z,18.50
2023-09-13T01:19:40.145Z,18.53
2023-09-13T01:23:55.920Z,18.49
2023-09-13T01:28:13.684Z,18.55
2023-09-13T01:32:17.683Z,18.57
2023-09-13T01:36:20.364Z,18.52
2023-09-13T01:40:24.463Z,18.41
2023-09-13T01:44:29.030Z,18.22
2023-09-13T01:48:33.930Z,18.01
2023-09-13T01:52:36.863Z,17.83
2023-09-13T01:56:39.512Z,17.75
2023-09-13T02:00:42.594Z,17.76
2023-09-13T02:04:46.708Z,17.72
2023-09-13T02:08:49.383Z,17.67
2023-09-13T02:12:52.749Z,17.61
2023-09-13T02:17:00.303Z,17.69
2023-09-13T02:21:04.633Z,17.65
2023-09-13T02:25:08.215Z,17.48
2023-09-13T02:29:10.861Z,17.30
2023-09-13T02:33:13.590Z,17.22
2023-09-13T02:37:18.741Z,17.20
2023-09-13T02:41:21.632Z,17.21
2023-09-13T02:45:24.271Z,17.12
2023-09-13T02:49:27.042Z,17.05
2023-09-13T02:53:32.227Z,17.04
2023-09-13T02:57:35.133Z,17.02
2023-09-13T03:01:37.879Z,17.00
2023-09-13T03:05:40.599Z,17.01
2023-09-13T03:09:45.544Z,17.10
2023-09-13T03:13:48.405Z,17.13
2023-09-13T03:17:51.954Z,17.14
2023-09-13T03:21:54.703Z,17.18
2023-09-13T03:25:58.724Z,17.19
2023-09-13T03:30:01.439Z,17.25
2023-09-13T03:34:04.525Z,17.29
2023-09-13T03:38:07.197Z,17.29
2023-09-13T03:42:11.206Z,17.26
2023-09-13T03:46:14.077Z,17.28
2023-09-13T03:50:16.885Z,17.26
2023-09-13T03:54:19.603Z,17.32
2023-09-13T03:58:23.751Z,17.36
2023-09-13T04:02:26.621Z,17.30
2023-09-13T04:06:29.507Z,17.30
2023-09-13T04:10:32.279Z,17.24
2023-09-13T04:14:36.323Z,17.24
2023-09-13T04:18:38.996Z,17.27
2023-09-13T04:22:41.791Z,17.34
2023-09-13T04:26:44.449Z,17.37
2023-09-13T04:30:48.609Z,17.33
2023-09-13T04:34:51.273Z,17.34
2023-09-13T04:38:53.925Z,17.34
2023-09-13T04:43:17.422Z,17.33
2023-09-13T04:47:21.502Z,17.18
2023-09-13T04:51:24.220Z,17.22
2023-09-13T04:55:27.887Z,17.26
2023-09-13T04:59:44.260Z,17.35
2023-09-13T05:03:49.693Z,17.37
2023-09-13T05:07:54.459Z,17.24
2023-09-13T05:11:57.181Z,17.06
2023-09-13T05:15:59.902Z,17.03
2023-09-13T05:20:04.032Z,17.00
2023-09-13T05:24:07.151Z,17.05
2023-09-13T05:28:09.861Z,17.04
2023-09-13T05:32:12.893Z,17.05
2023-09-13T05:36:17.416Z,17.10
2023-09-13T05:40:20.143Z,17.16
2023-09-13T05:44:25.065Z,17.15
2023-09-13T05:48:27.730Z,17.14
2023-09-13T05:52:34.241Z,17.15
2023-09-13T05:56:36.909Z,17.17
2023-09-13T06:00:40.097Z,17.18
2023-09-13T06:04:42.837Z,17.20
2023-09-13T06:08:47.109Z,17.24
2023-09-13T06:12:49.806Z,17.27
2023-09-13T06:16:52.639Z,17.26
2023-09-13T06:20:55.886Z,17.26
2023-09-13T06:25:00.702Z,17.30
2023-09-13T06:29:04.260Z,17.36
2023-09-13T06:33:12.588Z,17.42
2023-09-13T06:37:16.250Z,17.45
2023-09-13T06:41:20.547Z,17.45
2023-09-13T06:45:27.327Z,17.46
2023-09-13T06:49:32.159Z,17.48
2023-09-13T06:53:35.904Z,17.51
2023-09-13T06:57:43.179Z,17.59
2023-09-13T07:02:07.705Z,17.78
2023-09-13T07:06:09.196Z,18.02
2023-09-13T07:10:13.413Z,18.22
2023-09-13T07:14:18.199Z,18.34
2023-09-13T07:18:20.904Z,18.44
2023-09-13T07:22:23.628Z,18.61
2023-09-13T07:26:26.321Z,18.55
2023-09-13T07:30:30.517Z,18.72
2023-09-13T07:34:33.200Z,19.07
2023-09-13T07:38:36.188Z,19.48
2023-09-13T07:42:38.868Z,20.05
2023-09-13T07:46:42.958Z,20.01
2023-09-13T07:50:47.537Z,19.98
2023-09-13T07:54:50.255Z,19.92
2023-09-13T07:58:52.945Z,19.99
2023-09-13T08:02:57.542Z,20.04
2023-09-13T08:07:00.617Z,20.01
2023-09-13T08:11:04.787Z,19.98
2023-09-13T08:15:08.269Z,19.75
2023-09-13T08:19:12.420Z,19.70
2023-09-13T08:23:15.304Z,19.65
2023-09-13T08:27:18.274Z,19.65
2023-09-13T08:31:22.272Z,19.63
2023-09-13T08:35:26.904Z,19.70
2023-09-13T08:39:29.708Z,19.80
2023-09-13T08:43:34.427Z,19.92
2023-09-13T08:47:51.251Z,20.07
2023-09-13T08:52:02.956Z,20.15
2023-09-13T08:56:07.766Z,20.21
2023-09-13T09:00:10.954Z,20.32
2023-09-13T09:04:15.534Z,20.46
2023-09-13T09:08:20.271Z,20.64
2023-09-13T09:12:26.012Z,20.75
2023-09-13T09:16:29.326Z,20.76
2023-09-13T09:20:32.270Z,20.73
2023-09-13T09:24:36.285Z,20.83
2023-09-13T09:28:39.106Z,20.96
2023-09-13T09:32:41.955Z,21.13
2023-09-13T09:36:48.137Z,21.20
2023-09-13T09:40:52.550Z,21.30
2023-09-13T09:44:56.313Z,21.35
2023-09-13T09:48:59.284Z,21.68
2023-09-13T09:53:10.412Z,21.86
2023-09-13T09:57:21.892Z,21.91
2023-09-13T10:01:24.436Z,22.00
2023-09-13T10:05:27.093Z,22.11
2023-09-13T10:09:48.427Z,21.96
2023-09-13T10:13:52.708Z,21.98
2023-09-13T10:17:57.288Z,22.17
2023-09-13T10:22:00.187Z,22.12
2023-09-13T10:26:04.858Z,22.15
2023-09-13T10:30:12.637Z,22.46
2023-09-13T10:34:20.659Z,22.36
2023-09-13T10:38:33.772Z,22.36
2023-09-13T10:42:36.592Z,22.40
2023-09-13T10:46:42.363Z,22.24
2023-09-13T10:50:45.111Z,22.49
2023-09-13T10:54:49.908Z,22.79
2023-09-13T10:58:55.863Z,22.96
2023-09-13T11:03:01.176Z,22.89
2023-09-13T11:07:06.005Z,22.89
2023-09-13T11:11:10.358Z,22.67
2023-09-13T11:15:20.678Z,22.82
2023-09-13T11:19:29.936Z,22.74
2023-09-13T11:24:00.106Z,23.06
2023-09-13T11:28:07.428Z,23.59
2023-09-13T11:32:17.577Z,23.78
2023-09-13T11:36:22.118Z,23.77
2023-09-13T11:40:26.685Z,23.54
2023-09-13T11:48:55.032Z,24.59
2023-09-13T11:53:18.136Z,24.62
2023-09-13T11:57:25.648Z,24.76
2023-09-13T12:01:32.921Z,24.14
2023-09-13T12:05:50.374Z,24.26
2023-09-13T12:10:07.504Z,23.95
2023-09-13T12:14:13.502Z,23.99
2023-09-13T12:18:22.867Z,23.46
2023-09-13T12:22:25.556Z,23.42
2023-09-13T12:26:29.948Z,23.65
2023-09-13T12:30:32.658Z,23.64
2023-09-13T12:34:35.726Z,23.92
2023-09-13T12:38:47.364Z,23.87
2023-09-13T12:42:51.590Z,23.84
2023-09-13T12:46:55.181Z,23.44
2023-09-13T12:50:57.857Z,23.88
2023-09-13T12:55:00.660Z,23.91
2023-09-13T12:59:04.736Z,23.71
2023-09-13T13:03:07.785Z,23.46
2023-09-13T13:07:10.897Z,23.56
2023-09-13T13:11:13.734Z,23.66
2023-09-13T13:15:18.037Z,24.41
2023-09-13T13:19:30.454Z,24.50
2023-09-13T13:23:35.424Z,24.46
2023-09-13T13:27:38.100Z,24.50
2023-09-13T13:31:42.239Z,24.32
2023-09-13T13:35:45.263Z,24.21
2023-09-13T13:39:47.952Z,24.05
2023-09-13T13:43:51.079Z,23.88
2023-09-13T13:47:55.117Z,23.64
2023-09-13T13:51:57.778Z,23.45
2023-09-13T13:56:01.016Z,23.34
2023-09-13T14:00:04.629Z,23.16
2023-09-13T14:04:08.737Z,23.07
2023-09-13T14:08:11.600Z,22.98
2023-09-13T14:12:14.272Z,23.06
2023-09-13T14:16:16.924Z,22.94
2023-09-13T14:20:21.799Z,23.01
2023-09-13T14:24:24.482Z,23.00
2023-09-13T14:28:27.501Z,23.02
2023-09-13T14:32:30.204Z,22.93
2023-09-13T14:36:34.319Z,22.96
2023-09-13T14:40:36.988Z,22.85
2023-09-13T14:44:40.333Z,22.79
2023-09-13T14:48:43.224Z,22.66
2023-09-13T14:52:47.477Z,22.63
2023-09-13T14:56:50.301Z,22.64
2023-09-13T15:00:53.055Z,22.57
2023-09-13T15:04:55.852Z,22.48
2023-09-13T15:08:59.912Z,22.48
2023-09-13T15:13:03.703Z,22.48
2023-09-13T15:17:06.636Z,22.38
2023-09-13T15:21:09.276Z,22.24
2023-09-13T15:25:14.171Z,22.19
2023-09-13T15:29:16.836Z,22.18
2023-09-13T15:33:19.868Z,22.19
2023-09-13T15:37:22.591Z,22.20
2023-09-13T15:41:26.679Z,22.13
2023-09-13T15:45:29.437Z,22.09
2023-09-13T15:49:32.202Z,22.06
2023-09-13T15:53:34.945Z,21.94
2023-09-13T15:57:39.174Z,21.85
2023-09-13T16:01:42.023Z,21.81
2023-09-13T16:05:45.137Z,21.72
2023-09-13T16:09:47.993Z,21.67
2023-09-13T16:13:52.224Z,21.57
2023-09-13T16:17:54.933Z,21.56
2023-09-13T16:21:58.277Z,21.56
2023-09-13T16:26:01.006Z,21.56
2023-09-13T16:30:07.162Z,21.51
2023-09-13T16:34:09.955Z,21.50
2023-09-13T16:38:12.693Z,21.41
2023-09-13T16:42:15.446Z,21.36
2023-09-13T16:46:19.793Z,21.24
2023-09-13T16:50:22.515Z,21.02
2023-09-13T16:54:25.197Z,20.67
2023-09-13T16:58:27.923Z,20.47
2023-09-13T17:02:32.064Z,20.33
2023-09-13T17:06:35.182Z,20.24
2023-09-13T17:10:37.928Z,19.99
2023-09-13T17:14:41.495Z,19.65
2023-09-13T17:18:45.803Z,19.40
2023-09-13T17:22:48.707Z,19.16
2023-09-13T17:27:03.903Z,18.93
2023-09-13T17:31:12.234Z,18.88
2023-09-13T17:35:16.320Z,18.89
2023-09-13T17:39:19.009Z,18.84
2023-09-13T17:43:22.864Z,18.75
2023-09-13T17:47:25.941Z,18.55
2023-09-13T17:51:30.600Z,18.49
2023-09-13T17:55:33.559Z,18.43
2023-09-13T17:59:36.235Z,18.41
2023-09-13T18:03:40.949Z,18.36
2023-09-13T18:07:47.222Z,18.30
2023-09-13T18:11:52.949Z,18.33
2023-09-13T18:15:55.736Z,18.36
2023-09-13T18:19:58.774Z,18.36
2023-09-13T18:24:03.184Z,18.31
2023-09-13T18:28:06.862Z,18.33
2023-09-13T18:32:09.594Z,18.30
2023-09-13T18:36:12.351Z,18.28
2023-09-13T18:40:16.578Z,18.25
2023-09-13T18:44:19.512Z,18.20
2023-09-13T18:48:22.546Z,18.13
2023-09-13T18:52:25.253Z,18.11
2023-09-13T18:56:29.653Z,18.06
2023-09-13T19:00:33.564Z,17.91
2023-09-13T19:04:36.386Z,17.88
2023-09-13T19:08:39.263Z,17.82
2023-09-13T19:12:43.385Z,17.82
2023-09-13T19:16:46.184Z,17.78
2023-09-13T19:20:49.031Z,17.77
2023-09-13T19:24:57.438Z,17.72
2023-09-13T19:29:02.005Z,17.66
2023-09-13T19:33:07.361Z,17.62
2023-09-13T19:37:10.058Z,17.58
2023-09-13T19:41:16.688Z,17.53
2023-09-13T19:45:20.771Z,17.52
2023-09-13T19:49:23.511Z,17.46
2023-09-13T19:53:26.825Z,17.45
2023-09-13T19:57:31.743Z,17.43
2023-09-13T20:01:37.029Z,17.39
2023-09-13T20:05:40.082Z,17.32
2023-09-13T20:09:43.501Z,17.19
2023-09-13T20:13:46.232Z,17.20
2023-09-13T20:17:50.517Z,17.16
2023-09-13T20:21:53.261Z,17.15
2023-09-13T20:25:57.264Z,17.15
2023-09-13T20:30:00.013Z,17.17
2023-09-13T20:34:04.119Z,17.20
2023-09-13T20:38:08.325Z,17.24
2023-09-13T20:42:11.134Z,17.28
2023-09-13T20:46:13.938Z,17.26
2023-09-13T20:50:18.072Z,17.22
2023-09-13T20:54:23.081Z,17.25
2023-09-13T20:58:25.780Z,17.25
2023-09-13T21:02:28.470Z,17.25
2023-09-13T21:06:32.522Z,17.24
2023-09-13T21:10:35.228Z,17.21
2023-09-13T21:14:37.912Z,17.22
2023-09-13T21:18:40.650Z,17.26
2023-09-13T21:22:44.713Z,17.25
2023-09-13T21:26:50.881Z,17.28
2023-09-13T21:31:00.524Z,17.18
2023-09-13T21:35:06.033Z,17.15
2023-09-13T21:39:10.460Z,17.13
2023-09-13T21:43:13.124Z,17.13
2023-09-13T21:47:15.750Z,17.14
2023-09-13T21:51:18.434Z,17.14
2023-09-13T21:55:22.455Z,17.15
2023-09-13T21:59:27.197Z,17.15
2023-09-13T22:03:34.087Z,17.14
2023-09-13T22:07:36.944Z,17.10
2023-09-13T22:11:41.065Z,17.08
2023-09-13T22:15:43.839Z,17.07
2023-09-13T22:19:46.684Z,17.07
2023-09-13T22:23:49.437Z,17.04
2023-09-13T22:27:53.669Z,16.97
2023-09-13T22:32:05.187Z,16.98
2023-09-13T22:36:16.145Z,16.96
2023-09-13T22:40:23.350Z,16.93
2023-09-13T22:44:38.727Z,16.93
2023-09-13T22:48:42.756Z,16.91
2023-09-13T22:53:11.964Z,16.90
2023-09-13T22:57:14.729Z,16.84
2023-09-13T23:01:18.982Z,16.79
2023-09-13T23:05:21.769Z,16.72
2023-09-13T23:09:24.499Z,16.73
2023-09-13T23:13:27.107Z,16.74
2023-09-13T23:17:31.661Z,16.75
2023-09-13T23:21:34.347Z,16.74
2023-09-13T23:25:37.263Z,16.73
2023-09-13T23:29:39.920Z,16.76
2023-09-13T23:33:46.307Z,16.74
2023-09-13T23:37:48.980Z,16.68
2023-09-13T23:41:51.728Z,16.63
2023-09-13T23:45:54.473Z,16.60
2023-09-13T23:49:58.493Z,16.54
2023-09-13T23:54:01.135Z,16.50
2023-09-13T23:58:04.667Z,16.46
